Morris, IL (60450)

11:50 PM CDT on October 21, 2014 (GMT -0500)
Morris North | Change Station
CLOSE
Current Station
Personal Weather Station
Location: Morris, IL
Elevation: 548 ft
Nearby Weather Stations

Elev 548 ft 41.38 °N, 88.43 °W | Updated 17 seconds ago

Overcast
Overcast
44.6 °F
Feels Like 45 °F
N
0.0
Wind Variable Wind from North
Gusts 0.0 mph

Today
High -- | Low -- °F
--% Chance of Precip.
Yesterday
High -- | Low -- °F
Precip. -- in
7:12 AM 6:03 PM
Waning Crescent, 3% visible
Pressure 30.25 in
Visibility 10.0 miles
Clouds Mostly Cloudy 2800 ft
Windchill 45 °F
Dew Point 38 °F
Humidity 78%
Rainfall 0.00 in
Snow Depth Not available.
UV 0 out of 12
Pollen 1.60 out of 12
Ozone Good
PM2.5 Good
Flu Activity No Activity
METAR KC09 220435Z AUTO 00000KT 10SM BKN028 06/04 A3025 RMK AO2 T00620037

More Conditions Fewer Conditions

Pressure 30.25 in
Visibility 10.0 miles
Clouds Mostly Cloudy 2800 ft
Windchill 45 °F
Dew Point 38 °F
Humidity 78%
Rainfall 0.00 in
Snow Depth Not available.
UV 0 out of 12
Pollen 1.60 out of 12
Ozone Good
PM2.5 Good
Flu Activity No Activity
METAR KC09 220435Z AUTO 00000KT 10SM BKN028 06/04 A3025 RMK AO2 T00620037

More Conditions Fewer Conditions

10-Day Weather Forecast

Almanac

Astronomy

Oct. 21, 2014 Rise Set
Actual Time 7:12 AM CDT 6:03 PM CDT
Civil Twilight 6:44 AM CDT 6:31 PM CDT
Nautical Twilight 6:11 AM CDT 7:03 PM CDT
Astronomical Twilight 5:39 AM CDT 7:35 PM CDT
Moon 4:54 AM CDT (10/21) 4:58 PM CDT (10/21)
Length of Visible Light 11h 47m
Length of Day
10h 51m
Tomorrow will be 2m 36s shorter.
Waning Crescent, 3% of the Moon is Illuminated
Oct 22
Waning Crescent
Oct 23
New
Oct 30
First Quarter
Nov 6
Full
Nov 14
Last Quarter

Yesterday's Extremes

State Highs State Lows

Community

WunderPhotos

Upload Photos

1,763,882 photos uploaded!

Nearby

Air Quality

  Air Quality AQ Index Pollutant
Yesterday Good
PM2.5
Yesterday Good
OZONE
Current Good
PM2.5
Current Good
OZONE
Tuesday Good
PM2.5
Wednesday Good
PM2.5
Thursday Moderate
PM2.5
Friday Good
PM2.5
Saturday Moderate
PM2.5
Sunday Moderate
PM2.5

Snow Depth

Station Depth Elevation
No new snow has been reported.

Earthquake Activity

City Distance Mag. Time & Date
No recent earthquake activity has been reported nearby.
Minimum magnitude displayed is 2.5.

Coastal Water Temperatures

Place Temperature
No Stations Reporting

Nearby Weather Stations